createdAt,value
2023-04-26T00:00:09.259Z,10.47
2023-04-26T00:02:37.667Z,10.36
2023-04-26T00:05:06.922Z,10.37
2023-04-26T00:07:38.034Z,10.46
2023-04-26T00:10:06.532Z,10.39
2023-04-26T00:12:34.592Z,10.35
2023-04-26T00:15:02.817Z,10.37
2023-04-26T00:17:31.518Z,10.35
2023-04-26T00:19:59.415Z,10.36
2023-04-26T00:22:27.944Z,10.29
2023-04-26T00:24:57.207Z,10.23
2023-04-26T00:27:25.015Z,10.14
2023-04-26T00:29:52.945Z,10.14
2023-04-26T00:32:20.868Z,10.17
2023-04-26T00:34:48.768Z,10.14
2023-04-26T00:37:19.000Z,10.17
2023-04-26T00:39:46.971Z,10.06
2023-04-26T00:42:16.358Z,9.98
2023-04-26T00:44:44.439Z,9.85
2023-04-26T00:47:12.391Z,9.80
2023-04-26T00:49:40.739Z,9.77
2023-04-26T00:52:09.115Z,9.69
2023-04-26T00:54:37.104Z,9.67
2023-04-26T00:57:07.194Z,9.65
2023-04-26T00:59:36.937Z,9.59
2023-04-26T01:02:05.177Z,9.60
2023-04-26T01:04:33.613Z,9.52
2023-04-26T01:07:03.046Z,9.49
2023-04-26T01:09:34.777Z,9.53
2023-04-26T01:12:03.444Z,9.50
2023-04-26T01:14:32.093Z,9.43
2023-04-26T01:17:03.829Z,9.39
2023-04-26T01:19:32.697Z,9.39
2023-04-26T01:22:00.769Z,9.35
2023-04-26T01:24:30.862Z,9.25
2023-04-26T01:26:58.967Z,9.18
2023-04-26T01:29:27.732Z,9.15
2023-04-26T01:31:55.590Z,9.21
2023-04-26T01:34:23.422Z,9.22
2023-04-26T01:36:51.311Z,9.15
2023-04-26T01:39:19.487Z,9.11
2023-04-26T01:41:48.732Z,9.15
2023-04-26T01:44:16.911Z,9.11
2023-04-26T01:46:44.991Z,9.04
2023-04-26T01:49:13.980Z,9.03
2023-04-26T01:51:42.270Z,8.98
2023-04-26T01:54:10.101Z,8.97
2023-04-26T01:56:37.977Z,8.97
2023-04-26T01:59:07.282Z,8.93
2023-04-26T02:01:35.267Z,8.91
2023-04-26T02:04:04.348Z,8.84
2023-04-26T02:06:32.791Z,8.80
2023-04-26T02:09:00.627Z,8.80
2023-04-26T02:11:28.535Z,8.82
2023-04-26T02:13:56.487Z,8.81
2023-04-26T02:16:27.111Z,8.73
2023-04-26T02:18:55.776Z,8.62
2023-04-26T02:21:23.643Z,8.64
2023-04-26T02:23:51.676Z,8.61
2023-04-26T02:26:19.685Z,8.53
2023-04-26T02:28:47.602Z,8.50
2023-04-26T02:31:15.569Z,8.47
2023-04-26T02:33:44.824Z,8.51
2023-04-26T02:36:13.757Z,8.48
2023-04-26T02:38:41.683Z,8.45
2023-04-26T02:41:09.792Z,8.42
2023-04-26T02:43:37.744Z,8.40
2023-04-26T02:46:08.421Z,8.34
2023-04-26T02:48:36.738Z,8.36
2023-04-26T02:51:06.740Z,8.36
2023-04-26T02:53:34.949Z,8.36
2023-04-26T02:56:03.045Z,8.34
2023-04-26T02:58:30.973Z,8.30
2023-04-26T03:01:01.353Z,8.31
2023-04-26T03:03:31.073Z,8.31
2023-04-26T03:05:59.524Z,8.28
2023-04-26T03:08:28.764Z,8.27
2023-04-26T03:10:56.804Z,8.23
2023-04-26T03:13:24.799Z,8.24
2023-04-26T03:15:55.033Z,8.26
2023-04-26T03:18:23.310Z,8.25
2023-04-26T03:20:51.728Z,8.21
2023-04-26T03:23:19.664Z,8.15
2023-04-26T03:25:48.949Z,8.12
2023-04-26T03:28:17.006Z,8.07
2023-04-26T03:30:45.027Z,8.00
2023-04-26T03:33:13.735Z,8.06
2023-04-26T03:35:41.814Z,8.03
2023-04-26T03:38:09.894Z,7.97
2023-04-26T03:40:37.739Z,7.99
2023-04-26T03:43:07.396Z,7.95
2023-04-26T03:45:35.622Z,7.93
2023-04-26T03:48:03.769Z,7.91
2023-04-26T03:50:31.848Z,7.94
2023-04-26T03:52:59.688Z,7.93
2023-04-26T03:55:27.576Z,7.95
2023-04-26T03:57:55.489Z,7.96
2023-04-26T04:00:26.051Z,7.98
2023-04-26T04:02:54.104Z,7.97
2023-04-26T04:05:26.102Z,7.99
2023-04-26T04:07:54.445Z,8.04
2023-04-26T04:10:23.121Z,8.08
2023-04-26T04:12:51.415Z,8.03
2023-04-26T04:15:21.643Z,8.04
2023-04-26T04:17:51.788Z,8.05
2023-04-26T04:20:21.227Z,7.99
2023-04-26T04:22:49.413Z,8.03
2023-04-26T04:25:17.401Z,8.03
2023-04-26T04:27:45.387Z,8.00
2023-04-26T04:30:14.696Z,8.02
2023-04-26T04:32:46.893Z,8.08
2023-04-26T04:35:18.073Z,8.18
2023-04-26T04:37:46.062Z,8.20
2023-04-26T04:40:14.590Z,8.26
2023-04-26T04:42:46.753Z,8.26
2023-04-26T04:45:16.188Z,8.29
2023-04-26T04:47:45.421Z,8.40
2023-04-26T04:50:14.530Z,8.49
2023-04-26T04:52:44.798Z,8.49
2023-04-26T04:55:13.099Z,8.44
2023-04-26T04:57:43.123Z,8.49
2023-04-26T05:00:13.229Z,8.57
2023-04-26T05:03:00.180Z,8.57
2023-04-26T05:05:28.587Z,8.62
2023-04-26T05:07:58.076Z,8.68
2023-04-26T05:10:26.042Z,8.74
2023-04-26T05:12:54.665Z,8.76
2023-04-26T05:15:22.665Z,8.84
2023-04-26T05:17:51.928Z,9.01
2023-04-26T05:20:23.248Z,9.01
2023-04-26T05:22:51.840Z,8.98
2023-04-26T05:25:22.435Z,9.00
2023-04-26T05:27:54.561Z,8.91
2023-04-26T05:30:45.180Z,8.99
2023-04-26T05:33:49.157Z,8.94
2023-04-26T05:36:21.281Z,8.93
2023-04-26T05:38:49.259Z,8.95
2023-04-26T05:41:18.484Z,8.94
2023-04-26T05:43:47.391Z,8.94
2023-04-26T05:46:18.510Z,9.03
2023-04-26T05:48:46.609Z,9.05
2023-04-26T05:51:14.674Z,8.99
2023-04-26T05:53:42.781Z,9.06
2023-04-26T05:56:10.985Z,9.07
2023-04-26T05:58:40.665Z,9.02
2023-04-26T06:01:08.828Z,9.06
2023-04-26T06:03:37.402Z,9.11
2023-04-26T06:06:06.066Z,9.21
2023-04-26T06:08:34.122Z,9.30
2023-04-26T06:11:01.983Z,9.42
2023-04-26T06:13:30.153Z,9.45
2023-04-26T06:16:00.809Z,9.34
2023-04-26T06:18:28.665Z,9.44
2023-04-26T06:20:56.569Z,9.53
2023-04-26T06:23:24.860Z,9.49
2023-04-26T06:25:52.869Z,9.41
2023-04-26T06:28:20.847Z,9.34
2023-04-26T06:30:49.058Z,9.29
2023-04-26T06:33:18.502Z,9.27
2023-04-26T06:35:46.870Z,9.35
2023-04-26T06:38:15.131Z,9.42
2023-04-26T06:40:43.948Z,9.37
2023-04-26T06:43:12.048Z,9.31
2023-04-26T06:46:06.374Z,9.44
2023-04-26T06:48:35.719Z,9.47
2023-04-26T06:51:07.205Z,9.44
2023-04-26T06:53:35.367Z,9.41
2023-04-26T06:56:03.636Z,9.41
2023-04-26T06:58:31.896Z,9.46
2023-04-26T07:00:59.758Z,9.43
2023-04-26T07:03:28.030Z,9.46
2023-04-26T07:05:57.636Z,9.63
2023-04-26T07:08:26.029Z,9.63
2023-04-26T07:10:55.378Z,9.66
2023-04-26T07:13:23.423Z,9.72
2023-04-26T07:15:52.275Z,9.85
2023-04-26T07:18:20.423Z,10.02
2023-04-26T07:20:48.336Z,10.12
2023-04-26T07:23:17.624Z,10.12
2023-04-26T07:25:45.813Z,10.11
2023-04-26T07:28:13.794Z,10.08
2023-04-26T07:30:42.555Z,10.09
2023-04-26T07:33:10.891Z,10.01
2023-04-26T07:35:38.893Z,10.10
2023-04-26T07:38:07.316Z,10.31
2023-04-26T07:40:36.706Z,10.32
2023-04-26T07:43:05.253Z,10.36
2023-04-26T07:45:36.203Z,10.19
2023-04-26T07:48:04.250Z,10.18
2023-04-26T07:50:32.231Z,10.12
2023-04-26T07:53:00.418Z,10.11
2023-04-26T07:55:28.548Z,10.14
2023-04-26T07:57:57.930Z,10.24
2023-04-26T08:00:25.808Z,10.22
2023-04-26T08:02:53.933Z,10.17
2023-04-26T08:05:22.311Z,10.18
2023-04-26T08:07:50.264Z,10.25
2023-04-26T08:10:18.229Z,10.27
2023-04-26T08:12:46.266Z,10.43
2023-04-26T08:15:16.145Z,10.55
2023-04-26T08:17:44.143Z,10.65
2023-04-26T08:20:13.089Z,10.75
2023-04-26T08:22:41.035Z,10.76
2023-04-26T08:25:09.720Z,10.74
2023-04-26T08:27:37.978Z,10.71
2023-04-26T08:30:07.467Z,11.01
2023-04-26T08:32:36.960Z,10.92
2023-04-26T08:35:05.825Z,10.96
2023-04-26T08:37:33.957Z,10.93
2023-04-26T08:40:01.837Z,10.92
2023-04-26T08:42:31.089Z,10.92
2023-04-26T08:45:02.633Z,10.98
2023-04-26T08:47:39.617Z,11.10
2023-04-26T08:50:11.858Z,11.35
2023-04-26T08:52:41.580Z,11.50
2023-04-26T08:55:14.579Z,11.50
2023-04-26T08:57:44.058Z,11.43
2023-04-26T09:00:13.588Z,11.29
2023-04-26T09:02:42.900Z,11.32
2023-04-26T09:05:13.019Z,11.27
2023-04-26T09:07:46.428Z,11.27
2023-04-26T09:10:19.265Z,11.36
2023-04-26T09:12:47.137Z,11.47
2023-04-26T09:15:16.892Z,11.42
2023-04-26T09:17:45.894Z,11.43
2023-04-26T09:20:23.869Z,11.57
2023-04-26T09:22:54.266Z,11.47
2023-04-26T09:25:29.309Z,11.53
2023-04-26T09:27:58.036Z,11.60
2023-04-26T09:30:26.661Z,11.50
2023-04-26T09:32:57.059Z,11.47
2023-04-26T09:35:31.637Z,11.54
2023-04-26T09:38:07.952Z,11.60
2023-04-26T09:40:41.010Z,11.49
2023-04-26T09:43:11.606Z,11.43
2023-04-26T09:45:49.528Z,11.59
2023-04-26T09:48:21.318Z,11.61
2023-04-26T09:50:53.360Z,11.52
2023-04-26T09:53:29.236Z,11.39
2023-04-26T09:55:58.188Z,11.52
2023-04-26T09:58:26.705Z,11.67
2023-04-26T10:00:56.526Z,11.72
2023-04-26T10:03:24.677Z,11.86
2023-04-26T10:05:55.398Z,11.96
2023-04-26T10:08:23.412Z,12.09
2023-04-26T10:10:51.420Z,12.19
2023-04-26T10:13:20.833Z,12.07
2023-04-26T10:15:49.894Z,11.83
2023-04-26T10:18:17.928Z,11.82
2023-04-26T10:20:49.512Z,11.84
2023-04-26T10:23:21.495Z,11.77
2023-04-26T10:25:50.334Z,11.75
2023-04-26T10:28:18.971Z,11.78
2023-04-26T10:30:56.725Z,12.00
2023-04-26T10:33:26.008Z,12.04
2023-04-26T10:36:11.486Z,12.14
2023-04-26T10:38:42.536Z,12.15
2023-04-26T10:41:33.214Z,12.10
2023-04-26T10:44:23.303Z,12.16
2023-04-26T10:46:52.742Z,12.13
2023-04-26T10:49:25.706Z,12.09
2023-04-26T10:52:11.663Z,12.11
2023-04-26T10:54:57.561Z,12.29
2023-04-26T10:57:48.250Z,12.36
2023-04-26T11:00:31.418Z,12.32
2023-04-26T11:03:03.950Z,12.19
2023-04-26T11:05:39.382Z,12.28
2023-04-26T11:08:09.447Z,12.40
2023-04-26T11:10:42.304Z,12.64
2023-04-26T11:13:10.267Z,12.64
2023-04-26T11:15:38.186Z,12.58
2023-04-26T11:18:06.740Z,12.53
2023-04-26T11:20:35.549Z,12.40
2023-04-26T11:23:03.705Z,12.31
2023-04-26T11:25:31.633Z,12.18
2023-04-26T11:28:04.503Z,12.25
2023-04-26T11:30:33.277Z,12.10
2023-04-26T11:33:01.804Z,12.04
2023-04-26T11:35:30.909Z,12.30
2023-04-26T11:38:00.841Z,12.47
2023-04-26T11:40:29.954Z,12.69
2023-04-26T11:43:01.388Z,12.84
2023-04-26T11:45:33.206Z,12.97
2023-04-26T11:48:02.867Z,12.97
2023-04-26T11:50:32.910Z,12.94
2023-04-26T11:53:04.852Z,13.02
2023-04-26T11:55:35.938Z,13.08
2023-04-26T11:58:11.302Z,13.05
2023-04-26T12:00:56.325Z,12.93
2023-04-26T12:03:25.276Z,12.78
2023-04-26T12:05:56.142Z,12.65
2023-04-26T12:08:25.675Z,12.61
2023-04-26T12:10:54.058Z,12.53
2023-04-26T12:13:22.194Z,12.63
2023-04-26T12:15:52.594Z,12.36
2023-04-26T12:18:20.957Z,12.31
2023-04-26T12:20:48.822Z,12.32
2023-04-26T12:23:17.895Z,12.36
2023-04-26T12:25:54.959Z,12.56
2023-04-26T12:28:23.661Z,12.69
2023-04-26T12:30:53.126Z,12.92
2023-04-26T12:33:23.189Z,12.93
2023-04-26T12:35:51.928Z,12.88
2023-04-26T12:38:20.448Z,13.22
2023-04-26T12:40:48.336Z,13.34
2023-04-26T12:43:16.883Z,13.27
2023-04-26T12:45:44.827Z,13.34
2023-04-26T12:48:14.242Z,13.24
2023-04-26T12:50:42.437Z,12.95
2023-04-26T12:53:11.095Z,12.78
2023-04-26T12:55:39.765Z,12.60
2023-04-26T12:58:07.627Z,12.41
2023-04-26T13:00:35.818Z,12.42
2023-04-26T13:03:03.956Z,12.40
2023-04-26T13:05:33.359Z,12.49
2023-04-26T13:08:02.237Z,12.44
2023-04-26T13:10:30.210Z,12.47
2023-04-26T13:12:58.867Z,12.57
2023-04-26T13:15:26.851Z,12.58
2023-04-26T13:17:55.021Z,12.55
2023-04-26T13:20:25.086Z,12.37
2023-04-26T13:22:55.546Z,12.29
2023-04-26T13:25:23.349Z,12.60
2023-04-26T13:27:53.482Z,13.35
2023-04-26T13:30:21.464Z,13.84
2023-04-26T13:32:49.451Z,13.71
2023-04-26T13:35:17.478Z,13.54
2023-04-26T13:37:45.434Z,13.74
2023-04-26T13:40:17.056Z,14.01
2023-04-26T13:42:44.997Z,14.05
2023-04-26T13:45:17.612Z,14.05
2023-04-26T13:47:47.151Z,14.07
2023-04-26T13:50:15.036Z,14.35
2023-04-26T13:52:43.106Z,14.98
2023-04-26T13:55:11.387Z,14.96
2023-04-26T13:57:40.728Z,15.12
2023-04-26T14:00:09.880Z,15.11
2023-04-26T14:02:40.766Z,14.95
2023-04-26T14:05:09.885Z,14.90
2023-04-26T14:07:38.061Z,14.78
2023-04-26T14:10:06.458Z,14.66
2023-04-26T14:12:35.045Z,14.67
2023-04-26T14:15:06.680Z,14.70
2023-04-26T14:17:34.958Z,14.49
2023-04-26T14:20:02.914Z,14.33
2023-04-26T14:22:30.947Z,14.54
2023-04-26T14:24:58.885Z,14.15
2023-04-26T14:27:26.946Z,13.77
2023-04-26T14:29:54.764Z,13.46
2023-04-26T14:32:24.318Z,13.04
2023-04-26T14:34:52.313Z,12.82
2023-04-26T14:37:22.492Z,12.89
2023-04-26T14:39:50.949Z,13.07
2023-04-26T14:42:19.178Z,12.98
2023-04-26T14:44:47.694Z,12.70
2023-04-26T14:47:15.644Z,12.51
2023-04-26T14:49:44.973Z,13.12
2023-04-26T14:52:12.866Z,13.59
2023-04-26T14:54:41.428Z,14.10
2023-04-26T14:57:09.306Z,14.55
2023-04-26T14:59:37.786Z,14.76
2023-04-26T15:02:06.027Z,14.12
2023-04-26T15:04:34.336Z,14.26
2023-04-26T15:07:03.830Z,14.38
2023-04-26T15:09:31.714Z,14.67
2023-04-26T15:11:59.511Z,14.62
2023-04-26T15:14:27.382Z,14.72
2023-04-26T15:16:55.517Z,14.73
2023-04-26T15:19:23.474Z,14.20
2023-04-26T15:21:51.491Z,14.21
2023-04-26T15:24:20.766Z,14.58
2023-04-26T15:26:48.649Z,14.64
2023-04-26T15:29:16.745Z,14.28
2023-04-26T15:31:44.712Z,14.11
2023-04-26T15:34:12.610Z,13.50
2023-04-26T15:36:40.555Z,13.33
2023-04-26T15:39:09.019Z,13.26
2023-04-26T15:41:38.253Z,13.12
2023-04-26T15:44:06.319Z,12.92
2023-04-26T15:46:36.092Z,12.82
2023-04-26T15:49:05.624Z,12.97
2023-04-26T15:51:33.478Z,13.09
2023-04-26T15:54:01.366Z,12.90
2023-04-26T15:56:29.246Z,12.51
2023-04-26T15:58:58.602Z,12.40
2023-04-26T16:01:26.561Z,12.35
2023-04-26T16:03:54.846Z,12.61
2023-04-26T16:06:22.800Z,13.04
2023-04-26T16:08:50.666Z,13.48
2023-04-26T16:11:18.653Z,13.76
2023-04-26T16:13:51.656Z,14.04
2023-04-26T16:16:20.981Z,14.28
2023-04-26T16:18:48.963Z,14.44
2023-04-26T16:21:16.957Z,14.66
2023-04-26T16:23:45.311Z,14.31
2023-04-26T16:26:13.430Z,13.89
2023-04-26T16:28:41.726Z,13.87
2023-04-26T16:31:09.626Z,14.05
2023-04-26T16:33:39.905Z,14.01
2023-04-26T16:36:09.533Z,14.08
2023-04-26T16:38:37.454Z,13.99
2023-04-26T16:41:06.094Z,13.87
2023-04-26T16:43:36.978Z,13.98
2023-04-26T16:46:06.495Z,14.06
2023-04-26T16:48:35.550Z,14.24
2023-04-26T16:51:07.604Z,14.21
2023-04-26T16:53:37.555Z,14.15
2023-04-26T16:56:06.273Z,13.80
2023-04-26T16:58:34.103Z,13.74
2023-04-26T17:01:02.185Z,13.47
2023-04-26T17:03:30.258Z,13.29
2023-04-26T17:05:58.296Z,13.29
2023-04-26T17:08:27.568Z,13.21
2023-04-26T17:10:55.649Z,13.09
2023-04-26T17:13:24.202Z,13.11
2023-04-26T17:15:52.148Z,12.88
2023-04-26T17:18:20.101Z,12.58
2023-04-26T17:20:49.989Z,12.34
2023-04-26T17:23:18.018Z,12.17
2023-04-26T17:25:47.818Z,11.85
2023-04-26T17:28:15.741Z,11.66
2023-04-26T17:30:43.668Z,11.55
2023-04-26T17:33:12.278Z,11.42
2023-04-26T17:35:40.499Z,11.22
2023-04-26T17:38:08.519Z,11.26
2023-04-26T17:40:36.384Z,11.20
2023-04-26T17:43:05.586Z,11.06
2023-04-26T17:45:33.564Z,11.03
2023-04-26T17:48:01.520Z,10.98
2023-04-26T17:50:30.213Z,11.00
2023-04-26T17:52:58.116Z,10.96
2023-04-26T17:55:26.041Z,10.89
2023-04-26T17:57:54.032Z,10.84
2023-04-26T18:00:24.595Z,10.75
2023-04-26T18:02:53.883Z,10.65
2023-04-26T18:05:21.948Z,10.59
2023-04-26T18:07:49.912Z,10.48
2023-04-26T18:10:18.032Z,10.44
2023-04-26T18:12:46.231Z,10.42
2023-04-26T18:15:14.656Z,10.33
2023-04-26T18:17:44.028Z,10.21
2023-04-26T18:20:13.639Z,10.16
2023-04-26T18:22:41.539Z,10.13
2023-04-26T18:25:09.940Z,10.04
2023-04-26T18:27:37.848Z,9.98
2023-04-26T18:30:07.829Z,9.91
2023-04-26T18:32:35.810Z,9.92
2023-04-26T18:35:06.324Z,9.86
2023-04-26T18:37:34.210Z,9.77
2023-04-26T18:40:02.062Z,9.66
2023-04-26T18:42:29.972Z,9.76
2023-04-26T18:44:57.773Z,9.78
2023-04-26T18:47:25.656Z,9.72
2023-04-26T18:49:53.656Z,9.72
2023-04-26T18:52:23.031Z,9.67
2023-04-26T18:54:51.137Z,9.62
2023-04-26T18:57:22.235Z,9.56
2023-04-26T18:59:50.321Z,9.53
2023-04-26T19:02:18.379Z,9.55
2023-04-26T19:04:49.850Z,9.56
2023-04-26T19:07:18.612Z,9.53
2023-04-26T19:09:54.109Z,9.52
2023-04-26T19:12:22.729Z,9.52
2023-04-26T19:14:50.575Z,9.51
2023-04-26T19:17:18.430Z,9.40
2023-04-26T19:19:46.735Z,9.25
2023-04-26T19:22:14.687Z,9.36
2023-04-26T19:24:42.583Z,9.27
2023-04-26T19:27:12.372Z,9.22
2023-04-26T19:29:40.256Z,9.26
2023-04-26T19:32:08.238Z,9.21
2023-04-26T19:34:38.523Z,9.13
2023-04-26T19:37:07.116Z,9.01
2023-04-26T19:39:34.965Z,8.92
2023-04-26T19:42:03.267Z,8.91
2023-04-26T19:44:32.758Z,8.89
2023-04-26T19:47:00.872Z,8.83
2023-04-26T19:49:29.227Z,8.80
2023-04-26T19:51:57.356Z,8.78
2023-04-26T19:54:25.369Z,8.75
2023-04-26T19:56:53.301Z,8.73
2023-04-26T19:59:21.412Z,8.74
2023-04-26T20:01:53.628Z,8.71
2023-04-26T20:04:22.098Z,8.71
2023-04-26T20:06:50.060Z,8.71
2023-04-26T20:09:18.008Z,8.69
2023-04-26T20:11:45.824Z,8.70
2023-04-26T20:14:13.686Z,8.70
2023-04-26T20:16:41.616Z,8.65
2023-04-26T20:19:11.122Z,8.63
2023-04-26T20:21:39.044Z,8.63
2023-04-26T20:24:07.779Z,8.62
2023-04-26T20:26:35.687Z,8.57
2023-04-26T20:29:03.545Z,8.51
2023-04-26T20:31:32.491Z,8.44
2023-04-26T20:34:00.974Z,8.38
2023-04-26T20:36:30.223Z,8.35
2023-04-26T20:38:58.091Z,8.31
2023-04-26T20:41:25.938Z,8.26
2023-04-26T20:43:53.784Z,8.25
2023-04-26T20:46:21.813Z,8.22
2023-04-26T20:48:49.804Z,8.19
2023-04-26T20:51:17.677Z,8.15
2023-04-26T20:53:46.963Z,8.14
2023-04-26T20:56:14.791Z,8.08
2023-04-26T20:58:42.602Z,8.02
2023-04-26T21:01:11.442Z,7.99
2023-04-26T21:03:39.644Z,8.10
2023-04-26T21:06:07.873Z,8.28
2023-04-26T21:08:36.913Z,8.47
2023-04-26T21:11:06.572Z,8.64
2023-04-26T21:13:34.412Z,8.78
2023-04-26T21:16:02.539Z,8.84
2023-04-26T21:18:30.521Z,8.86
2023-04-26T21:20:58.403Z,8.84
2023-04-26T21:23:26.275Z,8.82
2023-04-26T21:25:54.318Z,8.82
2023-04-26T21:28:23.700Z,8.81
2023-04-26T21:30:51.670Z,8.81
2023-04-26T21:33:19.675Z,8.80
2023-04-26T21:35:47.620Z,8.80
2023-04-26T21:38:15.632Z,8.82
2023-04-26T21:40:43.531Z,8.83
2023-04-26T21:43:11.509Z,8.79
2023-04-26T21:45:41.358Z,8.65
2023-04-26T21:48:09.344Z,8.60
2023-04-26T21:50:37.327Z,8.62
2023-04-26T21:53:05.333Z,8.61
2023-04-26T21:55:33.267Z,8.61
2023-04-26T21:58:01.259Z,8.62
2023-04-26T22:00:29.180Z,8.64
2023-04-26T22:02:58.618Z,8.64
2023-04-26T22:05:26.861Z,8.58
2023-04-26T22:07:54.858Z,8.54
2023-04-26T22:10:22.721Z,8.59
2023-04-26T22:12:50.644Z,8.59
2023-04-26T22:15:18.429Z,8.56
2023-04-26T22:17:46.657Z,8.50
2023-04-26T22:20:16.128Z,8.47
2023-04-26T22:22:44.101Z,8.48
2023-04-26T22:25:12.028Z,8.45
2023-04-26T22:27:39.916Z,8.40
2023-04-26T22:30:20.511Z,8.37
2023-04-26T22:32:54.684Z,8.33
2023-04-26T22:35:25.515Z,8.24
2023-04-26T22:37:53.730Z,8.19
2023-04-26T22:40:21.969Z,8.10
2023-04-26T22:42:49.869Z,8.12
2023-04-26T22:45:18.129Z,8.14
2023-04-26T22:47:46.305Z,8.07
2023-04-26T22:50:14.379Z,7.99
2023-04-26T22:52:43.768Z,7.89
2023-04-26T22:55:11.832Z,7.77
2023-04-26T22:57:39.681Z,7.67
2023-04-26T23:00:12.262Z,7.53
2023-04-26T23:02:40.325Z,7.53
2023-04-26T23:05:10.161Z,7.63
2023-04-26T23:07:38.534Z,7.69
2023-04-26T23:10:09.964Z,7.72
2023-04-26T23:12:38.195Z,7.77
2023-04-26T23:15:07.186Z,7.75
2023-04-26T23:17:35.941Z,7.62
2023-04-26T23:20:11.915Z,7.57
2023-04-26T23:22:40.679Z,7.48
2023-04-26T23:25:10.697Z,7.46
2023-04-26T23:27:39.051Z,7.45
2023-04-26T23:30:08.363Z,7.50
2023-04-26T23:32:36.433Z,7.50
2023-04-26T23:35:05.505Z,7.52
2023-04-26T23:37:33.589Z,7.58
2023-04-26T23:40:01.514Z,7.60
2023-04-26T23:42:30.829Z,7.65
2023-04-26T23:44:58.636Z,7.63
2023-04-26T23:47:26.941Z,7.63
2023-04-26T23:49:54.897Z,7.61
2023-04-26T23:52:22.779Z,7.59
2023-04-26T23:54:50.751Z,7.53
2023-04-26T23:57:18.653Z,7.44
2023-04-26T23:59:47.971Z,7.41
